X

Important NEWS



New Hub Active

Miami is our new hub! Old members can request transfer via hr@dlxairways.net

Thank you very much and have nice flight.


Deluxe Airways.

X

Tours



Hello again, we created one nice test tour for all pilots to attend. also this is ment to be testing of our tour system

Available Tours

If you find some issues please inform us.

Thank you very much and have nice flight.


Deluxe Airways.

 METAR AND TAF INFORMATION
ArrayMETAR FOR LYTV
247408943 4 LYTV 222000Z VRB01KT CAVOK 09/08 Q1023 LYTV 2020-10-22T20:00:00Z 42.4 18.72 9.0 8.0 0 1 6.21 30.206694 VFR METAR 3.0 LYTV 221930Z VRB01KT CAVOK 09/08 Q1023 LYTV 2020-10-22T19:30:00Z 42.4 18.72 9.0 8.0 0 1 6.21 30.206694 VFR METAR 3.0 LYTV 221900Z VRB01KT CAVOK 10/08 Q1023 LYTV 2020-10-22T19:00:00Z 42.4 18.72 10.0 8.0 0 1 6.21 30.206694 VFR METAR 3.0 LYTV 221830Z 00000KT CAVOK 10/09 Q1023 LYTV 2020-10-22T18:30:00Z 42.4 18.72 10.0 9.0 0 0 6.21 30.206694 VFR METAR 3.0

 AIRPORT MAP

 RUNWAY INFORMATION
Runway 14 Runway length 8208 ft Runway width 148 ft
Runway elevation 7 ft Runway displaced threshold 0 ft Runway heading 139
Runway 32 Runway length 8208 ft Runway width 148 ft
Runway elevation 16 ft Runway displaced threshold 0 ft Runway heading 319

 AIRPORT FREQUENCIES
Type ARR Name APP Frequency 118 MHZ
Type TWR Name TWR Frequency 118 MHZ

 AIRPORT NEAR NAVIGATION AIDS
Type NDB Name Tivat Frequency 345 KHZ



Powered by Virtual Airlines Manager [v2.6.2]

Template code change by DeluxeAir